createdAt,value
2022-11-29T00:01:16.189Z,9.68
2022-11-29T00:03:43.355Z,9.71
2022-11-29T00:06:19.105Z,9.70
2022-11-29T00:08:46.276Z,9.67
2022-11-29T00:11:38.386Z,9.80
2022-11-29T00:14:06.294Z,9.62
2022-11-29T00:16:33.054Z,9.62
2022-11-29T00:19:00.107Z,9.68
2022-11-29T00:21:26.777Z,9.55
2022-11-29T00:23:53.678Z,9.58
2022-11-29T00:26:20.430Z,9.57
2022-11-29T00:28:47.047Z,9.56
2022-11-29T00:31:21.454Z,9.55
2022-11-29T00:33:48.693Z,9.59
2022-11-29T00:36:15.849Z,9.55
2022-11-29T00:38:42.525Z,9.54
2022-11-29T00:41:09.704Z,9.58
2022-11-29T00:43:36.546Z,9.54
2022-11-29T00:46:04.233Z,9.25
2022-11-29T00:48:31.422Z,9.26
2022-11-29T00:50:58.090Z,9.26
2022-11-29T00:53:24.919Z,9.15
2022-11-29T00:55:52.659Z,9.34
2022-11-29T00:58:20.265Z,9.41
2022-11-29T01:00:47.685Z,9.33
2022-11-29T01:03:15.120Z,9.33
2022-11-29T01:05:42.905Z,9.25
2022-11-29T01:08:10.539Z,9.23
2022-11-29T01:10:37.184Z,9.21
2022-11-29T01:13:04.061Z,9.13
2022-11-29T01:15:30.793Z,9.24
2022-11-29T01:17:57.492Z,9.31
2022-11-29T01:20:24.085Z,9.31
2022-11-29T01:22:51.177Z,9.47
2022-11-29T01:25:19.467Z,9.52
2022-11-29T01:27:46.383Z,9.38
2022-11-29T01:30:13.185Z,9.15
2022-11-29T01:32:39.890Z,9.18
2022-11-29T01:35:06.948Z,9.30
2022-11-29T01:37:33.642Z,9.27
2022-11-29T01:40:00.447Z,9.26
2022-11-29T01:42:27.029Z,9.31
2022-11-29T01:45:02.397Z,9.37
2022-11-29T01:47:28.930Z,9.42
2022-11-29T01:49:55.470Z,9.47
2022-11-29T01:52:33.506Z,9.47
2022-11-29T01:55:02.146Z,9.37
2022-11-29T01:57:29.692Z,9.24
2022-11-29T02:00:00.917Z,9.21
2022-11-29T02:02:35.639Z,9.38
2022-11-29T02:05:03.033Z,9.39
2022-11-29T02:07:29.756Z,9.32
2022-11-29T02:09:56.350Z,9.31
2022-11-29T02:12:43.220Z,9.12
2022-11-29T02:15:43.383Z,9.19
2022-11-29T02:18:14.765Z,9.24
2022-11-29T02:21:14.474Z,9.47
2022-11-29T02:24:02.471Z,9.45
2022-11-29T02:26:55.572Z,9.47
2022-11-29T02:29:59.803Z,9.37
2022-11-29T02:32:48.102Z,9.31
2022-11-29T02:35:39.516Z,9.09
2022-11-29T02:38:28.075Z,9.13
2022-11-29T02:41:13.639Z,9.07
2022-11-29T02:44:01.847Z,9.10
2022-11-29T02:46:55.886Z,9.14
2022-11-29T02:49:53.268Z,9.18
2022-11-29T02:52:27.773Z,9.35
2022-11-29T02:55:33.001Z,9.51
2022-11-29T02:58:09.710Z,9.36
2022-11-29T03:00:42.645Z,9.52
2022-11-29T03:03:11.652Z,9.41
2022-11-29T03:06:08.579Z,9.51
2022-11-29T03:08:55.528Z,9.61
2022-11-29T03:11:45.639Z,9.28
2022-11-29T03:14:21.600Z,9.53
2022-11-29T03:17:12.321Z,9.41
2022-11-29T03:19:59.807Z,9.30
2022-11-29T03:22:26.365Z,9.30
2022-11-29T03:25:13.630Z,8.99
2022-11-29T03:28:03.630Z,9.08
2022-11-29T03:30:33.008Z,9.06
2022-11-29T03:33:06.119Z,9.08
2022-11-29T03:35:38.738Z,9.05
2022-11-29T03:38:20.596Z,9.36
2022-11-29T03:40:56.416Z,9.12
2022-11-29T03:43:35.341Z,9.01
2022-11-29T03:46:06.624Z,8.85
2022-11-29T03:48:35.712Z,8.92
2022-11-29T03:51:14.534Z,8.97
2022-11-29T03:54:20.230Z,9.01
2022-11-29T03:56:47.174Z,9.13
2022-11-29T03:59:44.762Z,9.11
2022-11-29T04:02:48.604Z,9.17
2022-11-29T04:05:33.562Z,9.14
2022-11-29T04:08:28.125Z,9.24
2022-11-29T04:11:16.860Z,8.90
2022-11-29T04:14:04.624Z,8.97
2022-11-29T04:16:53.116Z,9.14
2022-11-29T04:19:44.632Z,9.07
2022-11-29T04:22:34.563Z,9.31
2022-11-29T04:25:04.115Z,9.14
2022-11-29T04:27:37.657Z,9.03
2022-11-29T04:30:10.035Z,9.04
2022-11-29T04:32:36.629Z,9.04
2022-11-29T04:35:09.307Z,8.92
2022-11-29T04:38:15.632Z,8.98
2022-11-29T04:41:24.003Z,8.86
2022-11-29T04:44:12.233Z,8.75
2022-11-29T04:47:09.168Z,8.77
2022-11-29T04:50:03.824Z,8.87
2022-11-29T04:52:52.112Z,9.12
2022-11-29T04:55:26.183Z,9.00
2022-11-29T04:58:18.455Z,9.00
2022-11-29T05:00:56.524Z,8.85
2022-11-29T05:03:34.353Z,8.66
2022-11-29T05:06:42.786Z,8.63
2022-11-29T05:09:22.252Z,8.55
2022-11-29T05:11:51.826Z,8.61
2022-11-29T05:14:27.594Z,8.72
2022-11-29T05:17:04.631Z,8.84
2022-11-29T05:20:03.731Z,8.77
2022-11-29T05:22:58.586Z,8.79
2022-11-29T05:25:40.065Z,8.80
2022-11-29T05:28:24.967Z,8.78
2022-11-29T05:31:15.809Z,8.80
2022-11-29T05:34:03.860Z,8.86
2022-11-29T05:36:33.602Z,8.79
2022-11-29T05:39:20.242Z,8.76
2022-11-29T05:42:20.802Z,8.78
2022-11-29T05:44:52.691Z,8.70
2022-11-29T05:47:31.602Z,8.72
2022-11-29T05:50:07.223Z,8.56
2022-11-29T05:52:44.180Z,8.41
2022-11-29T05:55:13.919Z,8.39
2022-11-29T05:57:57.081Z,8.33
2022-11-29T06:00:25.087Z,8.44
2022-11-29T06:03:13.651Z,8.52
2022-11-29T06:05:48.778Z,8.66
2022-11-29T06:08:24.707Z,8.42
2022-11-29T06:11:06.435Z,8.48
2022-11-29T06:13:58.035Z,8.62
2022-11-29T06:16:57.416Z,8.67
2022-11-29T06:19:50.825Z,8.79
2022-11-29T06:22:27.444Z,8.68
2022-11-29T06:25:23.706Z,8.63
2022-11-29T06:27:59.636Z,8.67
2022-11-29T06:30:41.532Z,8.76
2022-11-29T06:33:40.154Z,8.80
2022-11-29T06:36:30.196Z,8.76
2022-11-29T06:38:57.211Z,8.69
2022-11-29T06:41:27.813Z,8.68
2022-11-29T06:43:54.768Z,8.60
2022-11-29T06:46:42.648Z,8.66
2022-11-29T06:49:13.448Z,8.68
2022-11-29T06:51:47.254Z,8.66
2022-11-29T06:54:32.592Z,8.65
2022-11-29T06:57:08.735Z,8.71
2022-11-29T06:59:58.474Z,8.47
2022-11-29T07:02:48.326Z,8.56
2022-11-29T07:05:15.024Z,8.54
2022-11-29T07:07:42.373Z,8.60
2022-11-29T07:10:19.456Z,8.63
2022-11-29T07:12:47.988Z,8.65
2022-11-29T07:15:20.664Z,8.64
2022-11-29T07:18:25.963Z,8.63
2022-11-29T07:21:17.754Z,8.68
2022-11-29T07:23:47.449Z,8.69
2022-11-29T07:26:47.056Z,8.74
2022-11-29T07:29:22.792Z,8.82
2022-11-29T07:32:04.704Z,8.80
2022-11-29T07:34:40.037Z,8.84
2022-11-29T07:37:28.151Z,8.81
2022-11-29T07:40:00.666Z,8.77
2022-11-29T07:42:35.694Z,8.91
2022-11-29T07:45:22.568Z,8.90
2022-11-29T07:47:50.144Z,8.91
2022-11-29T07:50:16.974Z,8.87
2022-11-29T07:52:44.116Z,8.90
2022-11-29T07:55:18.928Z,8.89
2022-11-29T07:57:46.437Z,8.92
2022-11-29T08:00:13.941Z,8.74
2022-11-29T08:02:41.043Z,8.81
2022-11-29T08:05:08.919Z,8.89
2022-11-29T08:07:37.178Z,8.89
2022-11-29T08:10:06.907Z,8.82
2022-11-29T08:12:33.602Z,8.89
2022-11-29T08:15:00.251Z,8.89
2022-11-29T08:17:26.927Z,8.75
2022-11-29T08:19:53.583Z,8.97
2022-11-29T08:22:20.206Z,8.72
2022-11-29T08:24:47.302Z,8.68
2022-11-29T08:27:14.217Z,8.76
2022-11-29T08:29:40.869Z,8.80
2022-11-29T08:32:08.969Z,8.84
2022-11-29T08:34:35.647Z,9.01
2022-11-29T08:37:02.258Z,8.87
2022-11-29T08:39:28.850Z,8.98
2022-11-29T08:41:55.490Z,9.06
2022-11-29T08:44:22.192Z,8.93
2022-11-29T08:47:07.388Z,9.00
2022-11-29T08:49:34.118Z,8.98
2022-11-29T08:52:40.440Z,8.74
2022-11-29T08:55:07.434Z,8.84
2022-11-29T08:57:41.473Z,8.96
2022-11-29T09:00:09.102Z,8.79
2022-11-29T09:02:37.065Z,8.86
2022-11-29T09:05:05.151Z,8.45
2022-11-29T09:07:32.213Z,8.56
2022-11-29T09:09:59.015Z,8.36
2022-11-29T09:12:25.678Z,8.36
2022-11-29T09:14:52.383Z,8.24
2022-11-29T09:17:18.995Z,8.32
2022-11-29T09:19:45.726Z,8.22
2022-11-29T09:22:12.432Z,8.33
2022-11-29T09:24:40.425Z,8.38
2022-11-29T09:27:07.483Z,8.44
2022-11-29T09:29:34.050Z,8.54
2022-11-29T09:32:00.732Z,8.67
2022-11-29T09:34:27.424Z,8.75
2022-11-29T09:36:54.078Z,8.74
2022-11-29T09:39:20.706Z,8.89
2022-11-29T09:41:56.412Z,8.83
2022-11-29T09:44:41.171Z,8.86
2022-11-29T09:47:45.555Z,8.84
2022-11-29T09:50:32.587Z,8.79
2022-11-29T09:53:18.139Z,8.99
2022-11-29T09:56:02.945Z,8.98
2022-11-29T09:58:40.537Z,9.09
2022-11-29T10:01:11.350Z,8.93
2022-11-29T10:03:44.683Z,8.97
2022-11-29T10:06:23.548Z,9.05
2022-11-29T10:08:56.247Z,9.16
2022-11-29T10:11:36.808Z,9.17
2022-11-29T10:14:11.514Z,9.26
2022-11-29T10:16:43.498Z,9.22
2022-11-29T10:19:10.141Z,9.33
2022-11-29T10:21:39.018Z,9.35
2022-11-29T10:24:13.434Z,9.39
2022-11-29T10:26:40.939Z,9.39
2022-11-29T10:29:12.663Z,9.42
2022-11-29T10:31:43.305Z,9.38
2022-11-29T10:34:21.904Z,9.39
2022-11-29T10:36:59.804Z,9.51
2022-11-29T10:39:43.832Z,9.50
2022-11-29T10:42:35.031Z,9.39
2022-11-29T10:45:02.358Z,9.26
2022-11-29T10:47:28.996Z,9.26
2022-11-29T10:49:56.845Z,9.20
2022-11-29T10:52:25.486Z,9.33
2022-11-29T10:54:56.366Z,9.36
2022-11-29T10:57:23.966Z,9.41
2022-11-29T11:00:06.962Z,9.27
2022-11-29T11:02:35.824Z,9.44
2022-11-29T11:05:03.547Z,9.47
2022-11-29T11:07:35.639Z,9.48
2022-11-29T11:10:05.911Z,9.42
2022-11-29T11:12:34.426Z,9.45
2022-11-29T11:15:28.925Z,9.55
2022-11-29T11:18:06.465Z,9.55
2022-11-29T11:20:38.446Z,9.63
2022-11-29T11:23:24.971Z,9.51
2022-11-29T11:26:00.877Z,9.55
2022-11-29T11:28:30.471Z,9.51
2022-11-29T11:31:04.996Z,9.66
2022-11-29T11:33:37.002Z,9.56
2022-11-29T11:36:08.697Z,9.61
2022-11-29T11:39:00.012Z,9.62
2022-11-29T11:41:54.218Z,9.48
2022-11-29T11:44:50.383Z,9.63
2022-11-29T11:47:18.554Z,9.52
2022-11-29T11:49:53.503Z,9.37
2022-11-29T11:52:25.284Z,9.42
2022-11-29T11:54:55.295Z,9.41
2022-11-29T11:57:22.913Z,9.45
2022-11-29T11:59:51.011Z,9.47
2022-11-29T12:02:29.035Z,9.47
2022-11-29T12:04:59.403Z,9.43
2022-11-29T12:08:09.377Z,9.49
2022-11-29T12:10:38.593Z,9.48
2022-11-29T12:13:05.471Z,9.67
2022-11-29T12:15:51.156Z,9.64
2022-11-29T12:18:38.037Z,9.70
2022-11-29T12:21:22.170Z,9.62
2022-11-29T12:24:02.387Z,9.65
2022-11-29T12:29:19.803Z,9.49
2022-11-29T12:31:56.861Z,9.50
2022-11-29T12:35:00.034Z,9.53
2022-11-29T12:37:35.962Z,9.54
2022-11-29T12:40:05.645Z,9.68
2022-11-29T12:42:57.170Z,9.70
2022-11-29T12:45:49.443Z,9.76
2022-11-29T12:48:36.227Z,9.41
2022-11-29T12:51:05.981Z,9.49
2022-11-29T12:53:59.725Z,9.56
2022-11-29T12:56:37.590Z,9.41
2022-11-29T12:59:25.520Z,9.53
2022-11-29T13:02:16.918Z,9.42
2022-11-29T13:04:59.595Z,9.38
2022-11-29T13:11:29.489Z,9.54
2022-11-29T13:14:34.710Z,9.38
2022-11-29T13:17:08.435Z,9.49
2022-11-29T13:19:50.363Z,9.61
2022-11-29T13:22:38.188Z,9.65
2022-11-29T13:25:18.899Z,9.77
2022-11-29T13:28:08.224Z,9.64
2022-11-29T13:30:35.699Z,9.81
2022-11-29T13:33:26.196Z,9.74
2022-11-29T13:36:26.830Z,9.59
2022-11-29T13:39:44.452Z,9.54
2022-11-29T13:42:21.982Z,9.66
2022-11-29T13:44:54.350Z,9.55
2022-11-29T13:47:21.516Z,9.60
2022-11-29T13:50:38.953Z,9.59
2022-11-29T13:53:42.842Z,9.53
2022-11-29T13:56:29.765Z,9.40
2022-11-29T13:58:58.807Z,9.36
2022-11-29T14:01:26.772Z,9.35
2022-11-29T14:04:07.129Z,9.13
2022-11-29T14:06:40.463Z,9.26
2022-11-29T14:09:26.474Z,9.36
2022-11-29T14:12:19.832Z,9.41
2022-11-29T14:14:53.943Z,9.42
2022-11-29T14:17:41.666Z,9.40
2022-11-29T14:20:25.001Z,9.39
2022-11-29T14:23:14.304Z,9.39
2022-11-29T14:25:56.312Z,9.45
2022-11-29T14:28:22.856Z,9.40
2022-11-29T14:31:03.100Z,9.33
2022-11-29T14:33:55.457Z,9.19
2022-11-29T14:36:50.410Z,9.26
2022-11-29T14:39:41.176Z,9.23
2022-11-29T14:42:19.687Z,8.87
2022-11-29T14:44:50.911Z,8.92
2022-11-29T14:47:26.840Z,8.98
2022-11-29T14:49:55.820Z,8.96
2022-11-29T14:52:51.887Z,8.88
2022-11-29T14:55:24.968Z,8.84
2022-11-29T14:58:07.843Z,9.01
2022-11-29T15:00:38.443Z,8.99
2022-11-29T15:03:14.415Z,9.06
2022-11-29T15:05:47.135Z,9.05
2022-11-29T15:08:32.239Z,9.15
2022-11-29T15:11:05.314Z,9.04
2022-11-29T15:13:38.044Z,8.95
2022-11-29T15:16:28.458Z,9.08
2022-11-29T15:19:17.949Z,9.19
2022-11-29T15:21:57.857Z,9.24
2022-11-29T15:25:04.567Z,9.13
2022-11-29T15:27:31.127Z,9.10
2022-11-29T15:29:59.835Z,9.14
2022-11-29T15:32:31.353Z,9.13
2022-11-29T15:34:58.751Z,9.10
2022-11-29T15:37:35.534Z,9.15
2022-11-29T15:40:18.026Z,9.12
2022-11-29T15:42:54.699Z,9.12
2022-11-29T15:45:48.764Z,9.11
2022-11-29T15:48:21.541Z,8.98
2022-11-29T15:50:57.247Z,9.02
2022-11-29T15:53:33.539Z,9.05
2022-11-29T15:56:20.615Z,9.07
2022-11-29T15:58:47.776Z,9.03
2022-11-29T16:01:22.637Z,9.04
2022-11-29T16:03:53.183Z,9.03
2022-11-29T16:06:40.236Z,9.02
2022-11-29T16:09:09.887Z,9.00
2022-11-29T16:11:38.097Z,9.04
2022-11-29T16:14:10.850Z,8.99
2022-11-29T16:16:39.313Z,8.95
2022-11-29T16:19:31.040Z,8.95
2022-11-29T16:22:15.982Z,8.85
2022-11-29T16:25:04.547Z,8.91
2022-11-29T16:27:35.420Z,8.85
2022-11-29T16:30:02.739Z,8.88
2022-11-29T16:32:34.686Z,9.07
2022-11-29T16:35:21.973Z,9.24
2022-11-29T16:37:48.702Z,9.15
2022-11-29T16:40:26.911Z,8.92
2022-11-29T16:43:19.986Z,8.99
2022-11-29T16:45:47.016Z,8.97
2022-11-29T16:48:22.819Z,8.86
2022-11-29T16:51:13.916Z,8.87
2022-11-29T16:53:50.622Z,8.89
2022-11-29T16:56:19.194Z,8.89
2022-11-29T16:59:24.709Z,9.06
2022-11-29T17:01:41.478Z,8.93
2022-11-29T17:04:08.391Z,8.72
2022-11-29T17:06:35.264Z,8.64
2022-11-29T17:09:01.964Z,8.54
2022-11-29T17:11:28.668Z,8.48
2022-11-29T17:13:55.214Z,8.41
2022-11-29T17:16:23.615Z,8.47
2022-11-29T17:18:52.611Z,8.46
2022-11-29T17:21:24.888Z,8.51
2022-11-29T17:23:52.741Z,8.33
2022-11-29T17:26:22.803Z,8.44
2022-11-29T17:28:50.455Z,8.30
2022-11-29T17:31:24.319Z,8.30
2022-11-29T17:33:51.465Z,8.26
2022-11-29T17:36:19.782Z,8.45
2022-11-29T17:38:46.953Z,8.42
2022-11-29T17:41:16.205Z,8.38
2022-11-29T17:43:42.989Z,8.36
2022-11-29T17:46:11.304Z,8.39
2022-11-29T17:48:40.764Z,8.27
2022-11-29T17:51:22.803Z,8.25
2022-11-29T17:53:54.735Z,8.26
2022-11-29T17:56:23.672Z,8.21
2022-11-29T17:58:54.888Z,8.18
2022-11-29T18:01:23.806Z,8.17
2022-11-29T18:03:55.344Z,8.21
2022-11-29T18:06:26.541Z,8.16
2022-11-29T18:08:59.074Z,7.90
2022-11-29T18:11:30.146Z,7.84
2022-11-29T18:13:57.505Z,7.76
2022-11-29T18:16:30.054Z,7.67
2022-11-29T18:19:07.861Z,7.58
2022-11-29T18:21:38.037Z,7.65
2022-11-29T18:24:06.203Z,7.58
2022-11-29T18:26:34.255Z,7.64
2022-11-29T18:29:01.207Z,7.76
2022-11-29T18:31:30.007Z,7.87
2022-11-29T18:34:01.939Z,7.80
2022-11-29T18:36:36.833Z,7.84
2022-11-29T18:39:14.774Z,7.85
2022-11-29T18:41:43.657Z,7.80
2022-11-29T18:44:12.761Z,7.82
2022-11-29T18:46:41.284Z,7.87
2022-11-29T18:49:10.662Z,7.99
2022-11-29T18:51:38.437Z,8.07
2022-11-29T18:54:06.410Z,7.94
2022-11-29T18:56:34.522Z,7.99
2022-11-29T18:59:07.094Z,8.07
2022-11-29T19:01:37.937Z,8.04
2022-11-29T19:04:04.811Z,7.92
2022-11-29T19:06:39.335Z,7.96
2022-11-29T19:09:32.833Z,7.81
2022-11-29T19:11:59.549Z,7.96
2022-11-29T19:14:26.750Z,7.89
2022-11-29T19:16:53.735Z,7.96
2022-11-29T19:19:21.188Z,7.76
2022-11-29T19:21:48.093Z,7.75
2022-11-29T19:24:17.646Z,7.70
2022-11-29T19:26:46.375Z,7.74
2022-11-29T19:29:14.121Z,7.71
2022-11-29T19:31:41.785Z,7.77
2022-11-29T19:34:08.894Z,7.81
2022-11-29T19:36:43.646Z,7.82
2022-11-29T19:39:13.246Z,7.82
2022-11-29T19:41:42.189Z,7.80
2022-11-29T19:44:09.275Z,7.86
2022-11-29T19:46:41.056Z,7.92
2022-11-29T19:49:08.754Z,7.84
2022-11-29T19:51:36.343Z,7.78
2022-11-29T19:54:05.509Z,7.79
2022-11-29T19:56:32.915Z,7.70
2022-11-29T19:58:59.865Z,7.73
2022-11-29T20:01:37.751Z,7.71
2022-11-29T20:04:06.165Z,7.92
2022-11-29T20:06:32.729Z,7.77
2022-11-29T20:08:59.399Z,7.80
2022-11-29T20:11:26.670Z,7.86
2022-11-29T20:14:01.245Z,7.97
2022-11-29T20:16:29.639Z,8.05
2022-11-29T20:18:57.298Z,7.95
2022-11-29T20:21:29.128Z,7.97
2022-11-29T20:23:57.948Z,7.91
2022-11-29T20:26:25.641Z,7.94
2022-11-29T20:28:52.440Z,7.90
2022-11-29T20:31:22.702Z,8.02
2022-11-29T20:33:51.091Z,7.99
2022-11-29T20:36:33.089Z,7.99
2022-11-29T20:39:34.276Z,8.14
2022-11-29T20:42:28.555Z,8.17
2022-11-29T20:44:57.218Z,8.28
2022-11-29T20:47:31.709Z,8.36
2022-11-29T20:49:58.396Z,8.37
2022-11-29T20:52:46.904Z,8.18
2022-11-29T20:55:13.482Z,8.18
2022-11-29T20:57:40.342Z,8.27
2022-11-29T21:00:08.256Z,8.27
2022-11-29T21:02:34.982Z,8.05
2022-11-29T21:05:01.593Z,7.98
2022-11-29T21:07:29.289Z,8.15
2022-11-29T21:10:00.907Z,8.22
2022-11-29T21:12:29.362Z,8.18
2022-11-29T21:14:56.313Z,8.15
2022-11-29T21:17:23.291Z,8.22
2022-11-29T21:19:50.230Z,8.27
2022-11-29T21:22:35.661Z,8.12
2022-11-29T21:25:20.668Z,8.23
2022-11-29T21:27:50.399Z,8.22
2022-11-29T21:30:22.619Z,8.25
2022-11-29T21:32:49.937Z,8.27
2022-11-29T21:35:17.180Z,8.27
2022-11-29T21:37:44.253Z,8.36
2022-11-29T21:40:12.430Z,8.26
2022-11-29T21:42:39.567Z,8.30
2022-11-29T21:45:14.587Z,8.39
2022-11-29T21:47:43.162Z,8.38
2022-11-29T21:50:10.805Z,8.31
2022-11-29T21:52:37.475Z,8.31
2022-11-29T21:55:04.910Z,8.16
2022-11-29T21:57:31.548Z,8.20
2022-11-29T21:59:58.180Z,8.27
2022-11-29T22:02:24.872Z,8.23
2022-11-29T22:04:51.617Z,8.32
2022-11-29T22:07:18.308Z,8.15
2022-11-29T22:09:46.222Z,8.11
2022-11-29T22:12:32.908Z,8.13
2022-11-29T22:15:00.028Z,8.10
2022-11-29T22:17:29.461Z,8.09
2022-11-29T22:19:56.143Z,8.04
2022-11-29T22:22:24.281Z,8.04
2022-11-29T22:24:54.669Z,8.03
2022-11-29T22:27:21.310Z,8.04
2022-11-29T22:29:47.921Z,8.03
2022-11-29T22:32:14.627Z,8.04
2022-11-29T22:34:41.329Z,8.05
2022-11-29T22:37:08.091Z,8.12
2022-11-29T22:39:34.739Z,8.14
2022-11-29T22:42:03.651Z,8.17
2022-11-29T22:44:31.294Z,8.04
2022-11-29T22:46:58.350Z,8.06
2022-11-29T22:49:25.284Z,8.07
2022-11-29T22:51:52.464Z,8.16
2022-11-29T22:54:20.345Z,8.07
2022-11-29T22:56:47.499Z,8.11
2022-11-29T22:59:17.899Z,8.15
2022-11-29T23:01:44.930Z,8.19
2022-11-29T23:04:12.378Z,8.21
2022-11-29T23:06:42.181Z,8.21
2022-11-29T23:09:27.199Z,8.09
2022-11-29T23:12:08.041Z,8.03
2022-11-29T23:14:34.965Z,8.09
2022-11-29T23:17:02.069Z,8.03
2022-11-29T23:19:29.849Z,7.98
2022-11-29T23:21:56.700Z,8.10
2022-11-29T23:24:23.721Z,8.03
2022-11-29T23:26:50.631Z,8.00
2022-11-29T23:29:19.129Z,8.06
2022-11-29T23:31:46.918Z,8.12
2022-11-29T23:34:13.901Z,7.99
2022-11-29T23:36:40.984Z,7.99
2022-11-29T23:39:08.025Z,7.97
2022-11-29T23:41:37.759Z,8.27
2022-11-29T23:44:08.682Z,8.14
2022-11-29T23:46:35.467Z,7.92
2022-11-29T23:49:02.320Z,8.14
2022-11-29T23:51:29.221Z,8.17
2022-11-29T23:53:55.991Z,8.09
2022-11-29T23:56:22.826Z,8.05
2022-11-29T23:58:49.528Z,8.15
